Aviation Digital Data Service (ADDS)

Output produced by METARs form (0312 UTC 20 March 2019)
found at http://www.aviationweather.gov/metar/data/
 
Forecast for: OITR (ORUMIEH , IR)
Text: TAF OITR 192300Z 2000/2106 29006KT 6000 FEW035 SCT090
Forecast period: 0000 UTC 20 March 2019 to 0600 UTC 21 March 2019
Forecast type: FROM: standard forecast or significant change
Winds: from the WNW (290 degrees) at 7 MPH (6 knots; 3.1 m/s)
Visibility: 4 miles (6 km)
Ceiling: at least 12,000 feet AGL
Clouds: few clouds at 3500 feet AGL
scattered clouds at 9000 feet AGL
Weather: no significant weather forecast for this period
Text: PROB30 2000/2004 4000 BR
Forecast period: 0000 to 0400 UTC 20 March 2019
Forecast type: PROBABLE: 30 percent likelihood of the following during this time
Visibility: 2.49 miles (4.01 km)
Ceiling: unknown
Clouds: missing
Weather: BR  (mist)
Text: TEMPO 2009/2012 FEW030CB SCT035 BKN100
Forecast period: 0900 to 1200 UTC 20 March 2019
Forecast type: TEMPORARY: The following changes expected for less than half the time period
Visibility: missing
Ceiling: 10000 feet AGL
Clouds: few clouds at 3000 feet AGL
scattered clouds at 3500 feet AGL
broken clouds at 10000 feet AGL
Weather: no significant weather forecast for this period